createdAt,value
2019-06-07T00:03:43.532Z,13.70
2019-06-07T00:09:15.330Z,13.70
2019-06-07T00:14:43.879Z,13.70
2019-06-07T00:20:16.779Z,13.80
2019-06-07T00:25:44.797Z,13.80
2019-06-07T00:31:14.958Z,13.80
2019-06-07T00:36:45.071Z,13.80
2019-06-07T00:42:17.500Z,13.80
2019-06-07T00:47:45.385Z,13.90
2019-06-07T00:53:20.015Z,13.80
2019-06-07T00:58:45.811Z,13.80
2019-06-07T01:04:17.795Z,13.70
2019-06-07T01:09:46.092Z,13.70
2019-06-07T01:15:22.152Z,13.60
2019-06-07T01:20:49.376Z,13.50
2019-06-07T01:26:21.618Z,13.50
2019-06-07T01:31:49.945Z,13.40
2019-06-07T01:37:20.150Z,13.30
2019-06-07T01:42:50.237Z,13.20
2019-06-07T01:48:23.146Z,13.10
2019-06-07T01:54:41.431Z,13.00
2019-06-07T01:59:25.087Z,12.90
2019-06-07T02:04:54.707Z,12.70
2019-06-07T02:10:27.712Z,12.70
2019-06-07T02:15:55.123Z,12.60
2019-06-07T02:21:27.782Z,12.60
2019-06-07T02:26:55.879Z,12.50
2019-06-07T02:32:29.781Z,12.40
2019-06-07T02:37:58.013Z,12.40
2019-06-07T02:43:28.393Z,12.30
2019-06-07T02:48:58.301Z,12.30
2019-06-07T02:54:30.900Z,12.20
2019-06-07T03:00:16.758Z,12.20
2019-06-07T03:05:34.201Z,12.20
2019-06-07T03:11:02.571Z,12.20
2019-06-07T03:16:39.151Z,12.10
2019-06-07T03:22:08.471Z,12.10
2019-06-07T03:27:47.319Z,12.10
2019-06-07T03:33:09.199Z,12.10
2019-06-07T03:38:39.858Z,12.10
2019-06-07T03:44:09.391Z,12.20
2019-06-07T03:49:42.180Z,12.20
2019-06-07T03:55:15.020Z,12.20
2019-06-07T04:00:47.616Z,12.30
2019-06-07T04:06:16.883Z,12.40
2019-06-07T04:11:46.222Z,12.40
2019-06-07T04:17:15.513Z,12.60
2019-06-07T04:22:44.786Z,12.70
2019-06-07T04:28:15.050Z,12.90
2019-06-07T04:33:44.365Z,13.00
2019-06-07T04:39:13.644Z,13.20
2019-06-07T04:44:43.531Z,13.30
2019-06-07T04:50:13.115Z,13.30
2019-06-07T04:55:42.703Z,13.30
2019-06-07T05:01:26.953Z,13.40
2019-06-07T05:06:43.128Z,13.50
2019-06-07T05:12:12.564Z,13.50
2019-06-07T05:17:44.997Z,13.60
2019-06-07T05:23:59.482Z,13.60
2019-06-07T05:28:44.834Z,13.80
2019-06-07T05:34:15.070Z,13.90
2019-06-07T05:39:46.371Z,14.00
2019-06-07T05:45:20.087Z,14.30
2019-06-07T05:50:56.583Z,14.50
2019-06-07T05:56:20.585Z,14.70
2019-06-07T06:02:00.243Z,14.90
2019-06-07T06:07:20.905Z,15.10
2019-06-07T06:12:51.991Z,15.30
2019-06-07T06:18:21.229Z,15.40
2019-06-07T06:23:51.959Z,15.50
2019-06-07T06:29:21.503Z,15.50
2019-06-07T06:34:54.045Z,15.70
2019-06-07T06:40:22.862Z,15.90
2019-06-07T06:45:52.161Z,15.90
2019-06-07T06:51:21.492Z,16.20
2019-06-07T06:56:52.791Z,16.50
2019-06-07T07:02:21.899Z,16.80
2019-06-07T07:07:52.899Z,17.10
2019-06-07T07:13:23.308Z,17.50
2019-06-07T07:18:54.529Z,17.90
2019-06-07T07:24:23.668Z,18.10
2019-06-07T07:30:22.773Z,18.20
2019-06-07T07:35:23.963Z,18.50
2019-06-07T07:41:07.463Z,18.70
2019-06-07T07:46:29.642Z,19.00
2019-06-07T07:51:58.954Z,19.00
2019-06-07T07:57:27.800Z,19.20
2019-06-07T08:02:59.632Z,19.50
2019-06-07T08:08:29.558Z,19.70
2019-06-07T08:13:58.997Z,19.80
2019-06-07T08:19:29.277Z,19.90
2019-06-07T08:25:01.849Z,20.00
2019-06-07T08:36:16.973Z,20.40
2019-06-07T08:41:31.788Z,20.60
2019-06-07T08:47:19.323Z,20.70
2019-06-07T08:52:32.224Z,20.90
2019-06-07T08:58:05.754Z,21.20
2019-06-07T09:03:35.678Z,21.30
2019-06-07T09:09:08.353Z,21.40
2019-06-07T09:14:58.903Z,21.60
2019-06-07T09:20:35.101Z,21.70
2019-06-07T09:25:56.793Z,22.00
2019-06-07T09:31:14.037Z,22.20
2019-06-07T09:36:43.486Z,22.40
2019-06-07T09:42:12.959Z,22.60
2019-06-07T09:47:42.208Z,22.90
2019-06-07T09:53:21.729Z,23.10
2019-06-07T09:58:52.535Z,23.30
2019-06-07T10:04:28.482Z,23.50
2019-06-07T10:15:16.205Z,23.80
2019-06-07T10:20:45.470Z,24.00
2019-06-07T10:26:14.749Z,24.30
2019-06-07T10:31:44.019Z,24.30
2019-06-07T10:37:15.666Z,24.40
2019-06-07T10:42:44.334Z,24.50
2019-06-07T10:48:13.679Z,24.90
2019-06-07T10:53:42.972Z,25.20
2019-06-07T10:59:13.585Z,25.50
2019-06-07T11:04:43.008Z,25.80
2019-06-07T11:10:19.083Z,26.10
2019-06-07T11:15:45.025Z,26.40
2019-06-07T11:21:14.473Z,26.60
2019-06-07T11:26:43.715Z,26.70
2019-06-07T11:32:13.031Z,26.80
2019-06-07T11:37:42.328Z,27.00
2019-06-07T11:43:12.748Z,27.20
2019-06-07T11:48:42.235Z,27.20
2019-06-07T11:54:12.058Z,27.30
2019-06-07T11:59:41.464Z,27.10
2019-06-07T12:05:15.287Z,27.00
2019-06-07T12:10:42.931Z,27.00
2019-06-07T12:16:13.286Z,27.20
2019-06-07T12:21:42.564Z,27.00
2019-06-07T12:27:12.743Z,27.10
2019-06-07T12:32:42.153Z,27.10
2019-06-07T12:38:12.283Z,27.20
2019-06-07T12:43:41.815Z,27.30
2019-06-07T12:49:11.120Z,27.40
2019-06-07T12:54:40.392Z,27.60
2019-06-07T13:00:16.103Z,27.70
2019-06-07T13:05:45.514Z,27.80
2019-06-07T13:11:21.256Z,27.70
2019-06-07T13:16:45.797Z,27.90
2019-06-07T13:22:16.176Z,27.90
2019-06-07T13:27:45.512Z,27.90
2019-06-07T13:33:14.775Z,28.00
2019-06-07T13:38:44.092Z,28.20
2019-06-07T13:44:13.373Z,28.10
2019-06-07T13:49:42.720Z,28.20
2019-06-07T13:55:13.565Z,28.40
2019-06-07T14:00:42.849Z,28.30
2019-06-07T14:06:12.123Z,28.40
2019-06-07T14:11:50.447Z,28.60
2019-06-07T14:17:12.426Z,28.70
2019-06-07T14:22:41.731Z,28.80
2019-06-07T14:28:11.967Z,28.90
2019-06-07T14:33:41.373Z,29.00
2019-06-07T14:39:10.658Z,29.00
2019-06-07T14:44:39.926Z,29.10
2019-06-07T14:50:11.804Z,29.20
2019-06-07T14:55:41.088Z,29.90
2019-06-07T15:01:10.396Z,34.70
2019-06-07T15:06:39.696Z,34.30
2019-06-07T15:12:24.165Z,31.80
2019-06-07T15:17:41.771Z,30.60
2019-06-07T15:23:11.042Z,29.70
2019-06-07T15:28:40.320Z,29.20
2019-06-07T15:34:09.595Z,28.90
2019-06-07T15:39:38.882Z,28.90
2019-06-07T15:45:08.944Z,28.60
2019-06-07T15:50:38.407Z,28.40
2019-06-07T15:56:07.742Z,28.10
2019-06-07T16:01:42.440Z,28.10
2019-06-07T16:07:11.700Z,28.30
2019-06-07T16:12:58.590Z,28.10
2019-06-07T16:18:13.757Z,27.80
2019-06-07T16:23:44.115Z,27.70
2019-06-07T16:29:13.505Z,27.50
2019-06-07T16:34:43.822Z,27.40
2019-06-07T16:40:14.843Z,27.30
2019-06-07T16:45:44.953Z,27.40
2019-06-07T16:51:14.251Z,27.30
2019-06-07T16:56:47.264Z,27.20
2019-06-07T17:02:14.560Z,27.20
2019-06-07T17:07:44.801Z,27.20
2019-06-07T17:13:14.853Z,27.10
2019-06-07T17:18:45.310Z,27.00
2019-06-07T17:24:14.558Z,26.90
2019-06-07T17:29:43.852Z,26.70
2019-06-07T17:35:13.404Z,26.50
2019-06-07T17:40:42.830Z,26.40
2019-06-07T17:46:12.131Z,26.20
2019-06-07T17:51:41.765Z,26.00
2019-06-07T17:57:11.100Z,25.90
2019-06-07T18:02:40.466Z,25.80
2019-06-07T18:08:09.730Z,25.60
2019-06-07T18:13:39.070Z,25.50
2019-06-07T18:19:08.446Z,25.40
2019-06-07T18:24:37.730Z,25.30
2019-06-07T18:30:11.767Z,25.20
2019-06-07T18:35:41.316Z,25.10
2019-06-07T18:41:10.600Z,25.00
2019-06-07T18:46:39.915Z,24.90
2019-06-07T18:52:13.562Z,24.80
2019-06-07T18:57:42.928Z,24.70
2019-06-07T19:03:12.234Z,24.60
2019-06-07T19:08:41.520Z,24.40
2019-06-07T19:14:10.793Z,24.30
2019-06-07T19:19:40.090Z,24.10
2019-06-07T19:25:10.106Z,24.00
2019-06-07T19:30:39.406Z,23.90
2019-06-07T19:36:08.751Z,23.80
2019-06-07T19:41:38.053Z,23.70
2019-06-07T19:47:07.331Z,23.50
2019-06-07T19:52:36.754Z,23.40
2019-06-07T19:58:06.107Z,23.30
2019-06-07T20:03:35.382Z,23.10
2019-06-07T20:09:07.037Z,23.00
2019-06-07T20:14:36.439Z,22.90
2019-06-07T20:20:08.898Z,22.80
2019-06-07T20:25:38.306Z,22.60
2019-06-07T20:31:08.267Z,22.50
2019-06-07T20:36:37.709Z,22.50
2019-06-07T20:42:07.819Z,22.50
2019-06-07T20:47:37.145Z,22.60
2019-06-07T20:53:07.386Z,22.80
2019-06-07T20:58:36.659Z,22.90
2019-06-07T21:04:07.202Z,22.90
2019-06-07T21:09:36.588Z,22.90
2019-06-07T21:15:11.901Z,22.80
2019-06-07T21:20:38.701Z,22.60
2019-06-07T21:26:09.040Z,22.00
2019-06-07T21:31:38.419Z,21.30
2019-06-07T21:37:07.911Z,20.60
2019-06-07T21:42:37.257Z,20.00
2019-06-07T21:48:07.510Z,19.40
2019-06-07T21:53:37.613Z,18.80
2019-06-07T21:59:07.123Z,18.30
2019-06-07T22:04:37.250Z,17.90
2019-06-07T22:10:08.054Z,17.60
2019-06-07T22:15:37.648Z,17.40
2019-06-07T22:21:07.044Z,17.10
2019-06-07T22:26:36.325Z,16.80
2019-06-07T22:32:06.699Z,16.60
2019-06-07T22:37:36.026Z,16.40
2019-06-07T22:43:05.434Z,16.30
2019-06-07T22:48:34.702Z,16.10
2019-06-07T22:54:03.973Z,16.00
2019-06-07T22:59:33.274Z,15.90
2019-06-07T23:05:04.782Z,15.90
2019-06-07T23:10:33.653Z,15.80
2019-06-07T23:16:03.155Z,15.80
2019-06-07T23:21:32.424Z,15.70
2019-06-07T23:27:01.707Z,15.60
2019-06-07T23:32:31.069Z,15.50
2019-06-07T23:38:00.330Z,15.50
2019-06-07T23:43:29.601Z,15.50
2019-06-07T23:48:58.888Z,15.40
2019-06-07T23:54:28.203Z,15.40
2019-06-07T23:59:57.483Z,15.40
